Time;durP1;ratioP1;P1;durP2;ratioP2;P2;SDS_P1;SDS_P2;PMS_P1;PMS_P2;Temp;Humidity;BMP_temperature;BMP_pressure;BME280_temperature;BME280_humidity;BME280_pressure;Samples;Min_cycle;Max_cycle;Signal;HPM_P1;HPM_P2
2022/01/27 00:02:22;;;;;;;241.93;114.05;;;4.20;99.90;;;;;;5092712;28;20465;-55
2022/01/27 00:05:33;;;;;;;325.83;149.43;;;4.20;99.90;;;;;;5093437;28;20027;-55
2022/01/27 00:07:34;;;;;;;279.60;133.13;;;4.10;99.90;;;;;;5082307;28;20028;-51
2022/01/27 00:12:32;;;;;;;239.75;121.57;;;3.90;99.90;;;;;;5093181;28;20100;-55
2022/01/27 00:15:09;;;;;;;244.25;121.15;;;3.80;99.90;;;;;;5093342;28;20052;-50
2022/01/27 00:17:40;;;;;;;237.38;122.55;;;3.80;99.90;;;;;;5093500;28;20102;-56
2022/01/27 00:20:07;;;;;;;242.27;121.40;;;3.80;99.90;;;;;;5093149;28;20032;-55
2022/01/27 00:22:33;;;;;;;256.27;125.57;;;3.70;99.90;;;;;;5093481;28;20415;-53
2022/01/27 00:24:58;;;;;;;188.77;96.47;;;3.80;99.90;;;;;;5093428;28;20017;-54
2022/01/27 00:27:24;;;;;;;198.48;97.75;;;3.90;99.90;;;;;;5093044;28;20090;-51
2022/01/27 00:29:50;;;;;;;173.25;88.22;;;3.90;99.90;;;;;;5093095;28;20119;-52
2022/01/27 00:32:16;;;;;;;212.23;104.68;;;4.00;99.90;;;;;;5093584;28;20069;-58
2022/01/27 00:34:41;;;;;;;298.75;139.00;;;4.10;99.90;;;;;;5092926;28;20410;-55
2022/01/27 00:37:07;;;;;;;244.50;117.43;;;4.00;99.90;;;;;;5093188;28;20054;-54
2022/01/27 00:39:33;;;;;;;211.55;106.60;;;4.00;99.90;;;;;;5092996;28;20033;-56
2022/01/27 00:41:58;;;;;;;196.30;97.32;;;4.00;99.90;;;;;;5093266;28;20023;-57
2022/01/27 00:44:24;;;;;;;297.92;144.35;;;4.10;99.90;;;;;;5092733;28;20428;-54
2022/01/27 07:19:26;;;;;;;194.23;82.87;;;1.00;99.90;;;;;;5083203;28;20401;-55
2022/01/27 07:21:52;;;;;;;199.33;91.90;;;1.10;99.90;;;;;;5069891;28;20025;-57
2022/01/27 07:24:18;;;;;;;200.00;94.00;;;1.20;99.90;;;;;;5070311;28;20017;-53
2022/01/27 07:26:44;;;;;;;186.05;88.10;;;1.50;99.90;;;;;;5070230;28;20028;-55
2022/01/27 07:29:10;;;;;;;172.23;81.65;;;1.80;99.90;;;;;;5067673;28;20074;-55
2022/01/27 07:31:35;;;;;;;164.05;79.03;;;2.10;99.90;;;;;;5047660;28;20068;-54
2022/01/27 07:34:01;;;;;;;146.02;70.13;;;2.30;99.90;;;;;;5052016;28;20074;-52
2022/01/27 07:36:28;;;;;;;148.90;73.43;;;2.50;99.90;;;;;;5040208;28;20029;-53
2022/01/27 07:38:54;;;;;;;167.73;86.00;;;2.70;99.90;;;;;;5038478;28;20064;-56
2022/01/27 07:41:20;;;;;;;191.18;92.78;;;2.80;99.90;;;;;;5049246;28;20104;-55
2022/01/27 07:43:46;;;;;;;173.18;88.20;;;2.90;99.90;;;;;;5065681;28;20505;-56
2022/01/27 07:46:13;;;;;;;178.77;88.45;;;3.10;99.90;;;;;;5057513;28;20021;-55
2022/01/27 07:48:39;;;;;;;160.15;78.85;;;3.20;99.90;;;;;;5054552;28;20032;-55
2022/01/27 07:51:07;;;;;;;164.48;76.60;;;3.30;99.90;;;;;;5040864;28;20021;-54
2022/01/27 07:53:33;;;;;;;144.27;71.53;;;3.40;99.90;;;;;;5045103;28;20037;-57
2022/01/27 07:55:59;;;;;;;133.82;70.13;;;3.60;99.90;;;;;;5047272;28;20147;-55
2022/01/27 07:58:24;;;;;;;133.10;68.05;;;3.70;99.90;;;;;;5045350;28;20348;-56
2022/01/27 08:00:53;;;;;;;130.60;69.50;;;3.80;99.90;;;;;;5034860;28;20370;-58
2022/01/27 08:03:19;;;;;;;123.65;65.68;;;3.90;99.90;;;;;;5033657;28;20040;-55
2022/01/27 08:05:45;;;;;;;137.18;70.57;;;3.90;99.90;;;;;;5039535;28;20021;-55
2022/01/27 08:08:11;;;;;;;132.88;70.72;;;4.10;99.90;;;;;;5044312;28;20095;-58
2022/01/27 08:10:39;;;;;;;119.10;65.93;;;4.20;99.90;;;;;;5044772;28;20017;-52
2022/01/27 08:13:07;;;;;;;135.30;69.88;;;4.30;99.90;;;;;;5046822;28;20022;-53
2022/01/27 08:15:33;;;;;;;142.18;71.93;;;4.50;99.90;;;;;;5046911;28;20614;-55
2022/01/27 08:17:59;;;;;;;116.63;61.10;;;4.70;97.20;;;;;;5046821;28;20041;-54
2022/01/27 08:20:26;;;;;;;99.80;54.83;;;4.80;98.20;;;;;;5044824;28;20092;-54
2022/01/27 08:22:53;;;;;;;96.75;52.25;;;4.80;96.60;;;;;;5045624;28;20100;-53
2022/01/27 08:25:21;;;;;;;91.78;49.50;;;4.80;95.90;;;;;;5041684;28;20104;-57
2022/01/27 08:27:50;;;;;;;84.07;45.80;;;4.70;95.70;;;;;;5044921;28;20021;-52
2022/01/27 08:30:18;;;;;;;97.57;50.20;;;4.60;96.20;;;;;;5037179;28;20033;-54
2022/01/27 08:35:15;;;;;;;93.35;50.25;;;4.70;98.00;;;;;;5048800;28;20026;-57
2022/01/27 08:37:41;;;;;;;97.45;54.42;;;4.80;97.30;;;;;;5034946;28;20029;-60
2022/01/27 08:40:08;;;;;;;109.03;58.35;;;5.00;94.50;;;;;;5033883;28;20505;-53
2022/01/27 08:42:34;;;;;;;98.00;51.75;;;5.10;94.70;;;;;;5035508;28;20529;-57
2022/01/27 08:45:00;;;;;;;107.03;57.80;;;5.20;94.20;;;;;;5035433;28;20056;-53
2022/01/27 08:47:26;;;;;;;90.70;51.63;;;5.40;94.80;;;;;;5034967;28;20021;-55
2022/01/27 08:49:52;;;;;;;98.45;55.15;;;5.60;93.70;;;;;;5034560;28;20033;-53
2022/01/27 08:52:18;;;;;;;96.82;52.80;;;5.70;91.80;;;;;;5030911;28;20022;-57
2022/01/27 08:54:44;;;;;;;86.82;50.83;;;5.80;91.70;;;;;;5027528;28;20068;-56
2022/01/27 08:57:11;;;;;;;132.63;65.95;;;5.90;90.60;;;;;;5031374;28;20471;-59
2022/01/27 08:59:38;;;;;;;159.13;81.45;;;5.90;87.70;;;;;;5029599;28;20448;-59
2022/01/27 09:02:04;;;;;;;164.40;82.00;;;5.90;87.90;;;;;;5043390;28;20025;-56
2022/01/27 09:04:30;;;;;;;158.27;79.47;;;5.80;88.20;;;;;;5037586;28;20033;-53
2022/01/27 09:06:55;;;;;;;154.80;79.85;;;5.80;88.60;;;;;;5031702;28;20533;-57
2022/01/27 09:09:21;;;;;;;152.95;81.40;;;5.80;90.70;;;;;;5027027;28;20044;-57
2022/01/27 09:11:47;;;;;;;137.52;72.50;;;5.80;90.30;;;;;;5027887;28;20025;-59
2022/01/27 09:14:14;;;;;;;141.05;76.05;;;5.90;88.70;;;;;;5004708;28;20163;-57
2022/01/27 09:16:40;;;;;;;161.70;81.82;;;5.90;87.10;;;;;;5021087;28;20034;-57
2022/01/27 09:19:06;;;;;;;140.07;75.50;;;5.90;88.90;;;;;;5040950;28;20049;-59
2022/01/27 09:21:42;;;;;;;125.93;63.25;;;5.90;87.80;;;;;;5028266;28;20026;-59
2022/01/27 09:24:14;;;;;;;105.60;57.40;;;5.90;88.10;;;;;;5033039;28;20044;-59
2022/01/27 09:26:50;;;;;;;87.35;51.95;;;5.90;90.30;;;;;;5034725;28;20106;-57
2022/01/27 09:29:19;;;;;;;99.32;55.15;;;6.00;89.40;;;;;;5034212;28;20117;-54
2022/01/27 09:31:45;;;;;;;103.90;57.53;;;6.10;86.40;;;;;;5027986;28;20108;-58
2022/01/27 09:34:11;;;;;;;97.97;53.42;;;6.00;87.20;;;;;;5037256;28;20035;-56
2022/01/27 09:36:37;;;;;;;110.88;59.30;;;6.10;87.20;;;;;;5052490;28;20025;-55
2022/01/27 09:39:03;;;;;;;113.40;63.45;;;6.20;84.50;;;;;;5024495;28;20032;-53
2022/01/27 09:41:33;;;;;;;114.10;61.53;;;6.20;86.40;;;;;;5018724;28;20052;-55
2022/01/27 09:44:00;;;;;;;112.25;60.50;;;6.20;86.90;;;;;;5030234;28;20030;-60
2022/01/27 09:46:27;;;;;;;113.85;63.50;;;6.30;83.20;;;;;;5024176;28;20388;-54
2022/01/27 09:48:54;;;;;;;103.03;56.58;;;6.40;83.60;;;;;;5024783;28;20506;-51
2022/01/27 09:53:50;;;;;;;121.90;65.90;;;6.50;79.80;;;;;;5027588;28;20056;-58
2022/01/27 09:56:17;;;;;;;122.63;64.55;;;6.70;78.60;;;;;;5024814;28;20116;-57
2022/01/27 09:58:43;;;;;;;130.85;71.55;;;7.10;77.40;;;;;;5027534;28;20033;-54
2022/01/27 10:01:09;;;;;;;120.38;67.55;;;7.80;73.30;;;;;;5032943;28;20025;-52
2022/01/27 10:03:56;;;;;;;123.75;66.82;;;8.30;73.10;;;;;;5028044;28;20030;-52
2022/01/27 10:06:27;;;;;;;100.38;59.47;;;8.60;66.50;;;;;;5027854;28;20026;-55
2022/01/27 10:09:12;;;;;;;101.00;56.65;;;8.80;64.70;;;;;;5026515;28;20046;-57
2022/01/27 10:11:38;;;;;;;98.97;54.22;;;8.80;61.40;;;;;;5027679;28;20148;-56
2022/01/27 10:14:20;;;;;;;88.18;48.97;;;8.90;63.10;;;;;;5033109;28;20021;-52
2022/01/27 10:16:49;;;;;;;72.82;42.55;;;9.50;63.10;;;;;;5031727;28;20365;-54
2022/01/27 10:19:15;;;;;;;69.63;40.70;;;10.00;59.80;;;;;;5030618;28;20372;-55
2022/01/27 10:21:41;;;;;;;57.33;36.17;;;10.30;59.30;;;;;;5030317;28;20056;-53
2022/01/27 10:24:15;;;;;;;57.30;34.50;;;10.60;57.60;;;;;;5030859;28;20502;-54
2022/01/27 10:26:45;;;;;;;68.82;39.97;;;10.80;57.70;;;;;;5031802;28;20032;-55
2022/01/27 10:29:29;;;;;;;62.95;36.42;;;11.00;53.40;;;;;;5029919;28;20037;-60
2022/01/27 10:32:05;;;;;;;63.78;38.85;;;10.70;54.50;;;;;;5032087;28;20049;-61
2022/01/27 10:34:58;;;;;;;65.47;38.58;;;10.60;54.40;;;;;;5025793;28;20558;-60
2022/01/27 10:37:24;;;;;;;61.85;38.15;;;10.30;53.80;;;;;;5025548;28;20028;-60
2022/01/27 10:39:50;;;;;;;67.25;39.60;;;10.00;54.80;;;;;;5030005;28;20029;-61
2022/01/27 10:42:20;;;;;;;57.13;36.10;;;10.00;56.60;;;;;;5031290;28;20506;-60
2022/01/27 10:44:54;;;;;;;52.95;33.17;;;9.90;55.30;;;;;;5025852;28;20531;-60
2022/01/27 10:47:30;;;;;;;57.22;34.85;;;10.10;56.20;;;;;;5009339;28;20137;-60
2022/01/27 10:50:02;;;;;;;55.35;34.33;;;10.30;56.00;;;;;;5010155;28;20025;-60
2022/01/27 10:55:11;;;;;;;58.38;34.80;;;10.20;54.50;;;;;;5012242;28;20380;-60
2022/01/27 10:57:37;;;;;;;51.33;33.55;;;10.30;55.30;;;;;;5012064;28;20392;-61
2022/01/27 11:00:23;;;;;;;56.42;35.88;;;10.60;57.10;;;;;;5010810;28;20331;-61
2022/01/27 11:02:57;;;;;;;68.85;41.63;;;11.00;56.50;;;;;;5011599;28;20487;-61
2022/01/27 11:05:25;;;;;;;58.05;36.95;;;10.90;53.00;;;;;;5009676;28;20014;-61
2022/01/27 11:07:52;;;;;;;57.45;36.97;;;10.70;54.10;;;;;;5010722;28;20030;-61
2022/01/27 11:10:19;;;;;;;62.00;38.00;;;10.80;54.00;;;;;;5011940;28;20360;-61
2022/01/27 11:12:45;;;;;;;55.67;36.58;;;10.90;55.30;;;;;;5017883;28;20045;-62
2022/01/27 11:15:13;;;;;;;58.80;39.17;;;11.20;53.70;;;;;;5021317;28;20025;-61
2022/01/27 11:17:40;;;;;;;54.47;34.95;;;11.50;52.80;;;;;;5022913;28;20076;-61
2022/01/27 11:20:26;;;;;;;54.97;36.10;;;11.70;52.30;;;;;;5021274;28;20113;-59
2022/01/27 11:27:50;;;;;;;57.95;39.78;;;12.10;50.20;;;;;;5029110;28;20087;-58
2022/01/27 11:30:28;;;;;;;54.22;36.70;;;11.90;50.40;;;;;;5030680;28;20025;-59
2022/01/27 11:33:08;;;;;;;51.88;36.13;;;12.10;50.40;;;;;;5027224;28;20439;-60
2022/01/27 11:35:34;;;;;;;52.97;35.75;;;12.50;49.80;;;;;;5048801;28;20408;-59
2022/01/27 11:38:03;;;;;;;56.30;36.22;;;12.70;49.80;;;;;;5032869;28;20027;-60
2022/01/27 11:40:38;;;;;;;53.40;36.28;;;13.00;48.90;;;;;;5031594;28;20030;-60
2022/01/27 11:43:04;;;;;;;57.38;39.03;;;13.00;47.30;;;;;;5031902;28;20120;-60
2022/01/27 11:45:33;;;;;;;64.32;43.13;;;13.20;47.60;;;;;;5032450;28;20072;-59
2022/01/27 11:48:26;;;;;;;64.47;43.00;;;13.30;46.90;;;;;;5024557;28;20116;-60
2022/01/27 11:51:13;;;;;;;61.92;41.88;;;13.20;49.00;;;;;;5020879;28;20044;-60
2022/01/27 11:53:42;;;;;;;67.53;42.70;;;13.30;47.40;;;;;;5029660;28;20100;-59
2022/01/27 11:56:16;;;;;;;70.22;44.30;;;13.40;47.90;;;;;;5031276;28;20109;-59
2022/01/27 11:58:49;;;;;;;65.10;44.45;;;13.50;47.10;;;;;;5031235;28;20041;-59
2022/01/27 12:01:17;;;;;;;68.75;46.38;;;13.50;46.90;;;;;;5029639;28;20022;-60
2022/01/27 12:04:07;;;;;;;69.50;46.63;;;13.50;46.60;;;;;;5031714;28;20022;-60
2022/01/27 12:06:34;;;;;;;65.60;45.30;;;13.50;48.30;;;;;;5034495;28;20034;-60
2022/01/27 12:09:20;;;;;;;64.57;43.90;;;13.70;46.70;;;;;;5034503;28;20395;-60
2022/01/27 12:11:53;;;;;;;62.67;43.15;;;13.70;46.00;;;;;;5035181;28;20051;-60
2022/01/27 12:14:24;;;;;;;68.68;46.22;;;13.80;45.10;;;;;;5034585;28;20521;-60
2022/01/27 12:17:08;;;;;;;67.88;45.83;;;13.80;46.10;;;;;;5035251;28;20040;-60
2022/01/27 12:19:56;;;;;;;64.28;45.72;;;14.00;47.00;;;;;;4995759;28;20034;-60
2022/01/27 12:22:25;;;;;;;67.70;43.97;;;13.90;47.10;;;;;;4995622;28;20713;-60
2022/01/27 12:25:03;;;;;;;66.28;42.92;;;14.00;45.90;;;;;;4995938;28;20029;-61
2022/01/27 12:27:30;;;;;;;62.65;41.97;;;14.10;46.10;;;;;;4996562;28;20054;-60
2022/01/27 12:29:57;;;;;;;58.25;41.63;;;14.30;46.80;;;;;;4994104;28;20029;-60
2022/01/27 12:32:32;;;;;;;48.90;38.10;;;14.40;44.70;;;;;;4987895;28;20033;-60
2022/01/27 12:35:09;;;;;;;56.72;39.40;;;14.60;45.50;;;;;;4988686;28;20097;-62
2022/01/27 12:37:43;;;;;;;61.38;39.80;;;14.70;44.60;;;;;;5014791;28;20384;-62
2022/01/27 12:40:18;;;;;;;57.30;38.60;;;14.20;44.00;;;;;;4977076;28;20031;-59
2022/01/27 12:42:55;;;;;;;53.50;38.60;;;13.70;45.40;;;;;;5012624;28;20484;-59
2022/01/27 12:45:26;;;;;;;56.72;37.63;;;13.50;45.30;;;;;;5015411;28;20361;-59
2022/01/27 12:47:52;;;;;;;53.83;35.38;;;13.50;46.00;;;;;;5015195;28;20041;-59
2022/01/27 12:50:23;;;;;;;47.80;33.05;;;13.50;45.70;;;;;;5014950;28;20026;-60
2022/01/27 12:52:57;;;;;;;42.03;31.27;;;13.30;46.60;;;;;;5015667;28;20361;-59
2022/01/27 12:55:33;;;;;;;54.10;34.22;;;13.30;46.10;;;;;;5014473;28;20113;-59
2022/01/27 12:58:18;;;;;;;46.08;33.22;;;13.30;45.80;;;;;;5014218;28;20084;-59
2022/01/27 13:00:46;;;;;;;46.72;31.85;;;13.20;45.90;;;;;;5013949;28;20068;-59
2022/01/27 13:03:12;;;;;;;194.27;110.45;;;13.20;48.10;;;;;;5014246;28;20018;-59
2022/01/27 13:05:40;;;;;;;223.43;128.93;;;13.10;49.70;;;;;;5015273;28;20026;-59
2022/01/27 13:08:08;;;;;;;190.45;116.72;;;12.70;51.00;;;;;;5015277;28;20446;-60
2022/01/27 13:10:34;;;;;;;186.27;113.45;;;12.30;51.90;;;;;;5015554;28;20037;-59
2022/01/27 13:13:13;;;;;;;130.35;81.60;;;12.00;51.60;;;;;;5015569;28;20061;-59
2022/01/27 13:15:39;;;;;;;176.75;111.32;;;12.00;51.80;;;;;;5015287;28;20052;-59
2022/01/27 13:18:21;;;;;;;232.20;143.70;;;12.10;52.70;;;;;;5033166;28;20124;-59
2022/01/27 13:20:53;;;;;;;192.40;118.10;;;11.80;53.30;;;;;;5054960;28;20382;-60
2022/01/27 13:25:55;;;;;;;212.90;125.03;;;11.20;55.60;;;;;;5055390;28;20063;-60
2022/01/27 13:28:25;;;;;;;232.43;138.68;;;11.00;55.20;;;;;;5053391;28;20040;-60
2022/01/27 13:30:58;;;;;;;229.77;139.80;;;10.80;56.10;;;;;;5055036;28;20025;-59
2022/01/27 13:33:26;;;;;;;291.65;179.98;;;10.70;56.70;;;;;;5054919;28;20017;-60
2022/01/27 13:35:53;;;;;;;209.88;128.50;;;10.60;58.80;;;;;;5054757;28;20094;-60
2022/01/27 13:38:25;;;;;;;167.90;96.60;;;10.50;58.30;;;;;;5054801;28;20029;-59
2022/01/27 13:41:18;;;;;;;206.85;114.07;;;10.60;57.40;;;;;;5054734;28;20074;-60
2022/01/27 13:44:02;;;;;;;270.08;146.80;;;10.70;58.30;;;;;;5054690;28;20021;-62
2022/01/27 13:46:36;;;;;;;265.08;136.52;;;10.60;58.80;;;;;;5054390;28;20090;-62
2022/01/27 13:49:13;;;;;;;261.80;141.38;;;10.40;59.10;;;;;;5054549;28;20033;-61
2022/01/27 13:51:51;;;;;;;282.50;157.55;;;10.30;60.50;;;;;;5054419;28;20066;-60
2022/01/27 13:54:19;;;;;;;208.40;120.97;;;10.10;61.50;;;;;;5054443;28;20029;-60
2022/01/27 13:56:51;;;;;;;168.48;95.32;;;9.90;61.40;;;;;;5054148;28;20078;-59
2022/01/27 13:59:21;;;;;;;138.85;80.68;;;9.70;61.30;;;;;;5054309;28;20025;-59
2022/01/27 14:01:47;;;;;;;138.30;80.45;;;9.60;61.80;;;;;;5054101;28;20020;-62
2022/01/27 14:04:15;;;;;;;143.07;80.22;;;9.50;62.80;;;;;;5054197;28;20158;-62
2022/01/27 14:06:56;;;;;;;131.82;72.07;;;9.50;63.40;;;;;;5054226;28;20025;-62
2022/01/27 14:09:24;;;;;;;122.90;65.15;;;9.40;64.30;;;;;;5054054;28;20471;-62
2022/01/27 14:12:05;;;;;;;139.27;70.80;;;9.30;64.10;;;;;;5054206;28;20032;-60
2022/01/27 14:14:51;;;;;;;151.88;80.03;;;9.50;65.20;;;;;;5053885;28;20071;-59
2022/01/27 14:17:25;;;;;;;143.77;75.82;;;9.60;64.40;;;;;;5053936;28;20028;-62
2022/01/27 14:19:52;;;;;;;143.13;75.20;;;9.50;63.50;;;;;;5053892;28;20048;-62
2022/01/27 14:22:22;;;;;;;112.88;61.13;;;9.40;63.10;;;;;;5054083;28;20036;-59
2022/01/27 14:25:08;;;;;;;119.53;63.63;;;9.30;63.40;;;;;;5053923;28;20032;-59
2022/01/27 14:27:38;;;;;;;132.50;74.05;;;9.30;64.20;;;;;;5053345;28;20037;-59
2022/01/27 14:30:06;;;;;;;139.80;77.15;;;9.20;65.70;;;;;;5053639;28;20471;-59
2022/01/27 14:32:32;;;;;;;164.18;93.70;;;9.10;65.30;;;;;;5053656;28;20021;-60
2022/01/27 14:34:58;;;;;;;155.00;90.63;;;9.20;65.00;;;;;;5053774;28;20079;-59
2022/01/27 14:37:24;;;;;;;145.55;80.13;;;9.20;65.20;;;;;;5053661;28;20021;-60
2022/01/27 14:39:50;;;;;;;153.98;90.47;;;9.10;66.80;;;;;;5035676;28;20052;-60
2022/01/27 14:42:20;;;;;;;195.48;105.93;;;9.10;67.00;;;;;;5053542;28;20028;-60
2022/01/27 14:44:46;;;;;;;112.30;63.92;;;9.00;66.50;;;;;;5053296;28;20036;-60
2022/01/27 14:47:12;;;;;;;127.97;70.18;;;9.00;67.40;;;;;;5053391;28;20375;-60
2022/01/27 14:49:42;;;;;;;152.90;85.97;;;9.00;67.90;;;;;;5053472;28;20028;-59
2022/01/27 14:52:12;;;;;;;115.85;72.70;;;9.10;68.20;;;;;;5053437;28;20021;-60
2022/01/27 14:54:38;;;;;;;191.00;111.65;;;9.10;67.60;;;;;;5053354;28;20025;-60
2022/01/27 14:57:04;;;;;;;198.23;113.88;;;9.00;68.20;;;;;;5053243;28;20092;-60
2022/01/27 14:59:29;;;;;;;305.95;151.07;;;8.70;69.50;;;;;;5053182;28;20024;-60
2022/01/27 15:01:56;;;;;;;375.58;197.93;;;8.50;70.70;;;;;;5053157;28;20463;-59
2022/01/27 15:04:21;;;;;;;280.67;154.27;;;8.20;73.20;;;;;;5053445;28;20021;-59
2022/01/27 15:06:48;;;;;;;244.77;148.50;;;7.80;76.80;;;;;;5053195;28;20425;-60
2022/01/27 15:09:14;;;;;;;246.98;144.02;;;7.40;82.60;;;;;;5053168;28;20036;-60
2022/01/27 15:11:40;;;;;;;261.30;151.65;;;7.20;85.50;;;;;;5053131;28;20021;-60
2022/01/27 15:19:37;;;;;;;288.95;171.07;;;6.90;90.50;;;;;;5053174;28;20055;-61
2022/01/27 15:22:04;;;;;;;272.25;168.68;;;6.80;90.40;;;;;;5052992;28;20025;-61
2022/01/27 15:24:31;;;;;;;279.85;182.40;;;6.70;91.50;;;;;;5053061;28;20017;-61
2022/01/27 15:26:57;;;;;;;238.43;150.20;;;6.70;91.80;;;;;;5053009;28;20033;-61
2022/01/27 15:29:24;;;;;;;222.80;135.02;;;6.60;93.00;;;;;;5052635;28;20032;-61
2022/01/27 15:31:50;;;;;;;250.63;142.75;;;6.80;90.90;;;;;;5053168;28;20021;-61
2022/01/27 15:34:16;;;;;;;251.82;151.07;;;7.00;86.20;;;;;;5035091;28;20390;-61
2022/01/27 15:36:42;;;;;;;147.13;87.10;;;6.90;89.80;;;;;;5052938;28;20027;-61
2022/01/27 15:39:09;;;;;;;100.78;62.45;;;6.60;91.60;;;;;;5053388;28;20028;-61
2022/01/27 15:41:35;;;;;;;142.82;82.47;;;6.60;91.10;;;;;;5056800;28;20104;-62
2022/01/27 15:44:01;;;;;;;208.65;124.15;;;6.60;88.90;;;;;;5056846;28;20104;-61
2022/01/27 15:46:28;;;;;;;200.35;119.85;;;6.70;90.60;;;;;;5057046;28;20435;-61
2022/01/27 15:48:54;;;;;;;231.32;126.60;;;6.70;90.50;;;;;;5056728;28;20467;-61
2022/01/27 15:51:20;;;;;;;233.23;130.43;;;6.60;89.60;;;;;;5056777;28;20021;-62
2022/01/27 15:53:46;;;;;;;207.38;116.20;;;6.40;92.40;;;;;;5056668;28;20025;-61
2022/01/27 15:56:12;;;;;;;192.68;109.55;;;6.30;91.90;;;;;;5056676;28;20057;-61
2022/01/27 15:58:37;;;;;;;233.63;132.20;;;6.40;89.90;;;;;;5056431;28;20068;-61
2022/01/27 16:01:03;;;;;;;217.75;129.25;;;6.40;90.60;;;;;;5056538;28;20028;-61
2022/01/27 16:03:29;;;;;;;198.85;114.70;;;6.30;91.30;;;;;;5056568;28;20062;-61
2022/01/27 16:05:55;;;;;;;148.65;84.15;;;6.20;92.20;;;;;;5056519;28;20490;-60
2022/01/27 16:08:22;;;;;;;145.35;81.68;;;5.80;93.60;;;;;;5056342;28;20056;-60
2022/01/27 16:10:48;;;;;;;98.80;54.65;;;5.80;94.10;;;;;;5056270;28;20021;-61
2022/01/27 16:13:13;;;;;;;105.75;60.22;;;5.80;92.20;;;;;;5056491;28;20437;-61
2022/01/27 16:15:42;;;;;;;125.57;78.93;;;6.00;90.50;;;;;;5056306;28;20020;-61
2022/01/27 16:18:07;;;;;;;145.27;83.60;;;6.10;85.60;;;;;;5056095;28;20055;-61
2022/01/27 16:20:33;;;;;;;192.57;104.32;;;6.10;89.80;;;;;;5056289;28;20108;-61
2022/01/27 16:22:59;;;;;;;144.63;79.82;;;6.00;91.80;;;;;;5056092;28;20021;-61
2022/01/27 16:25:25;;;;;;;164.07;89.32;;;5.80;92.10;;;;;;5055980;28;20025;-61
2022/01/27 16:27:52;;;;;;;225.00;122.90;;;5.80;93.00;;;;;;5038202;28;20391;-60
2022/01/27 16:30:18;;;;;;;238.45;131.75;;;5.70;93.80;;;;;;5056091;28;20021;-61
2022/01/27 16:32:44;;;;;;;298.17;162.15;;;5.60;94.90;;;;;;5056228;28;20093;-61
2022/01/27 16:35:10;;;;;;;241.10;130.02;;;5.60;95.30;;;;;;5055996;28;20021;-61
2022/01/27 16:37:37;;;;;;;244.63;132.98;;;5.60;94.40;;;;;;5055869;28;20021;-60
2022/01/27 16:40:04;;;;;;;318.20;170.15;;;5.70;93.20;;;;;;5055644;28;20023;-60
2022/01/27 16:42:30;;;;;;;250.48;134.25;;;5.60;94.60;;;;;;5055812;28;20025;-60
2022/01/27 16:44:55;;;;;;;279.23;154.85;;;5.60;94.50;;;;;;5037951;28;20036;-60
2022/01/27 16:47:21;;;;;;;261.90;145.13;;;5.70;94.00;;;;;;5055640;28;20025;-60
2022/01/27 16:49:47;;;;;;;363.88;203.35;;;5.70;93.90;;;;;;5055490;28;20024;-60
2022/01/27 16:52:13;;;;;;;314.75;177.65;;;5.60;94.60;;;;;;5055599;28;20029;-61
2022/01/27 16:54:39;;;;;;;271.10;154.90;;;5.50;96.20;;;;;;5055693;28;20036;-61
2022/01/27 16:57:07;;;;;;;247.68;140.02;;;5.50;96.10;;;;;;5055588;28;20060;-60
2022/01/27 16:59:33;;;;;;;254.15;136.43;;;5.70;94.20;;;;;;5038006;28;20437;-60
2022/01/27 17:01:59;;;;;;;232.30;124.95;;;5.90;93.00;;;;;;5055446;28;20025;-60
2022/01/27 17:04:25;;;;;;;420.70;206.15;;;6.00;91.80;;;;;;5055669;28;20020;-60
2022/01/27 17:06:51;;;;;;;355.40;177.63;;;6.00;91.60;;;;;;5055473;28;20474;-60
2022/01/27 17:09:17;;;;;;;341.30;178.30;;;5.80;93.10;;;;;;5055049;28;20040;-61
2022/01/27 17:11:43;;;;;;;328.95;168.13;;;5.70;93.80;;;;;;5055276;28;20025;-61
2022/01/27 17:14:09;;;;;;;273.85;146.25;;;5.70;94.20;;;;;;5055271;28;20074;-61
2022/01/27 17:16:34;;;;;;;253.15;133.52;;;5.70;94.50;;;;;;5055263;28;20024;-60
2022/01/27 17:19:01;;;;;;;321.27;167.00;;;5.60;94.40;;;;;;5054915;28;20049;-61
2022/01/27 17:21:26;;;;;;;397.08;201.48;;;5.60;94.60;;;;;;5055234;28;20036;-60
2022/01/27 17:23:52;;;;;;;377.75;195.18;;;5.40;95.90;;;;;;5054812;28;20025;-60
2022/01/27 17:26:19;;;;;;;387.10;214.80;;;5.30;97.30;;;;;;5054973;28;20044;-60
2022/01/27 17:28:46;;;;;;;378.77;199.52;;;5.10;98.80;;;;;;5054978;28;20036;-60
2022/01/27 17:31:12;;;;;;;412.55;219.52;;;5.00;99.70;;;;;;5054943;28;20028;-61
2022/01/27 17:33:39;;;;;;;434.48;230.95;;;4.90;99.90;;;;;;5054805;28;20359;-60
2022/01/27 17:36:06;;;;;;;335.73;178.88;;;5.00;99.90;;;;;;5055087;28;20025;-60
2022/01/27 17:38:32;;;;;;;334.77;171.48;;;5.00;99.60;;;;;;5054542;28;20029;-60
2022/01/27 17:41:00;;;;;;;286.55;150.57;;;5.10;97.90;;;;;;5054695;28;20056;-60
2022/01/27 17:43:33;;;;;;;261.80;139.60;;;5.10;98.10;;;;;;5054710;28;20036;-60
2022/01/27 17:46:00;;;;;;;294.45;151.57;;;5.20;96.90;;;;;;5054640;28;20537;-61
2022/01/27 17:48:26;;;;;;;326.33;167.50;;;5.30;95.10;;;;;;5054516;28;20064;-60
2022/01/27 17:50:53;;;;;;;358.40;194.15;;;5.20;95.50;;;;;;5054662;28;20052;-60
2022/01/27 17:53:19;;;;;;;288.15;155.25;;;5.10;97.50;;;;;;5054348;28;20083;-60
2022/01/27 17:55:45;;;;;;;382.08;213.45;;;4.90;98.00;;;;;;5054357;28;20019;-60
2022/01/27 17:58:11;;;;;;;489.05;276.55;;;4.80;99.40;;;;;;5054386;28;20100;-60
2022/01/27 18:00:37;;;;;;;442.30;245.20;;;4.70;99.90;;;;;;5054336;28;20165;-60
2022/01/27 18:03:03;;;;;;;468.02;259.40;;;4.60;99.90;;;;;;5053426;28;20083;-61
2022/01/27 18:05:29;;;;;;;475.55;267.60;;;4.60;99.90;;;;;;5054296;28;20017;-61
2022/01/27 18:07:55;;;;;;;438.60;248.13;;;4.60;99.90;;;;;;5054088;28;20031;-60
2022/01/27 18:10:24;;;;;;;462.63;277.00;;;4.60;99.90;;;;;;5054096;28;20104;-60
2022/01/27 18:12:50;;;;;;;353.40;182.75;;;4.60;99.90;;;;;;5054130;28;20482;-60
2022/01/27 18:15:19;;;;;;;356.92;189.15;;;4.40;99.90;;;;;;5054306;28;20147;-61
2022/01/27 18:17:45;;;;;;;291.90;151.32;;;4.40;99.20;;;;;;5053728;28;20061;-61
2022/01/27 18:20:11;;;;;;;250.23;129.60;;;4.60;97.40;;;;;;5054093;28;20017;-60
2022/01/27 18:22:37;;;;;;;243.43;118.63;;;4.80;96.20;;;;;;5036167;28;20021;-60
2022/01/27 18:25:05;;;;;;;208.82;108.80;;;4.90;95.00;;;;;;5053820;28;20028;-60
2022/01/27 18:27:31;;;;;;;191.30;99.32;;;5.00;94.10;;;;;;5053826;28;20021;-60
2022/01/27 18:29:57;;;;;;;205.35;107.70;;;5.00;93.60;;;;;;5035937;28;20434;-60
2022/01/27 18:32:23;;;;;;;207.55;109.38;;;5.00;93.40;;;;;;5053686;28;20017;-60
2022/01/27 18:34:49;;;;;;;208.40;105.05;;;5.10;93.20;;;;;;5034567;28;20039;-61
2022/01/27 18:37:15;;;;;;;211.85;105.22;;;5.00;93.10;;;;;;5052335;28;20019;-60
2022/01/27 18:39:40;;;;;;;179.63;92.28;;;5.00;93.30;;;;;;5053182;28;20018;-60
2022/01/27 18:42:06;;;;;;;192.05;94.10;;;5.00;93.80;;;;;;5052688;28;20025;-60
2022/01/27 18:44:32;;;;;;;174.65;87.50;;;5.00;93.60;;;;;;5052609;28;20016;-60
2022/01/27 18:46:58;;;;;;;196.25;98.18;;;5.00;93.50;;;;;;5052938;28;20471;-61
2022/01/27 18:49:24;;;;;;;169.95;83.60;;;5.00;92.80;;;;;;5052818;28;20462;-61
2022/01/27 18:51:49;;;;;;;165.85;83.55;;;4.90;93.60;;;;;;5051740;28;20021;-60
2022/01/27 18:54:16;;;;;;;173.63;87.03;;;4.90;94.50;;;;;;5050500;28;20028;-60
2022/01/27 18:56:42;;;;;;;173.48;86.32;;;4.90;94.10;;;;;;5051368;28;20017;-61
2022/01/27 18:59:10;;;;;;;174.63;86.50;;;4.90;92.90;;;;;;5051319;28;20513;-60
2022/01/27 19:01:36;;;;;;;174.13;86.50;;;4.90;93.30;;;;;;5051618;28;20025;-60
2022/01/27 19:04:01;;;;;;;179.90;90.25;;;4.90;93.10;;;;;;5051304;28;20494;-60
2022/01/27 19:06:27;;;;;;;181.68;92.93;;;4.80;93.00;;;;;;5051227;28;20017;-60
2022/01/27 19:08:53;;;;;;;201.48;99.28;;;4.80;92.80;;;;;;5052089;28;20025;-61
2022/01/27 19:11:18;;;;;;;167.98;84.25;;;4.80;92.50;;;;;;5051271;28;20031;-60
2022/01/27 19:13:44;;;;;;;180.05;92.35;;;4.80;93.00;;;;;;5051875;28;20386;-60
2022/01/27 19:16:10;;;;;;;192.18;98.07;;;4.80;92.30;;;;;;5053309;28;20017;-60
2022/01/27 19:18:36;;;;;;;164.90;84.07;;;4.80;92.00;;;;;;5052866;28;20057;-60
2022/01/27 19:21:02;;;;;;;183.30;92.00;;;4.70;92.80;;;;;;5052864;28;20048;-60
2022/01/27 19:23:50;;;;;;;184.95;93.50;;;4.60;92.80;;;;;;5053340;28;20474;-60
2022/01/27 19:26:16;;;;;;;274.63;135.05;;;4.50;93.50;;;;;;5052914;28;20111;-61
2022/01/27 19:28:42;;;;;;;214.73;106.95;;;4.40;94.10;;;;;;5052951;28;20108;-61